Pomona, California
Current Conditions -  °F | °C
As of 5:53 AM on Thursday 30 Oct 2014 (Local Time) from KONT Reporting Station
Broken Clouds Broken Clouds  
Wind Chill: 60°   Ceiling: 25000
Heat Index: 60°   Visibility: 10mi
Dew Point: 51°   Wind: 0mph
Humidity: 72%   Direction: NA
Pressure: 29.99"   Gusts: NA
Location:  34.05°N, 117.75°W
Report Text: KONT 301253Z 00000KT 10SM BKN250 16/11 A2999 RMK AO2 SLP144 T01560106
Loading
Personal Weather Stations






























Interactive Weather Map
Tropical Storm Tracking
New forecast layout! Learn more

10-Day Weather Forecast

Advertisements
Track Severe Weather on mobile